Date,TemperatureHighF,TemperatureAvgF,TemperatureLowF,DewpointHighF,DewpointAvgF,DewpointLowF,HumidityHigh,HumidityAvg,HumidityLow,PressureMaxIn,PressureMinIn,WindSpeedMaxMPH,WindSpeedAvgMPH,GustSpeedMaxMPH,PrecipitationSumIn
2013-7-1,64.2,51.3,45.0,53.2,47.3,44.2,98,87,58,30.06,29.91,16,2,21,0.53
2013-7-2,66.0,53.5,45.0,49.1,46.2,41.2,98,79,43,30.05,29.84,16,1,16,0.53
2013-7-3,67.1,52.8,44.8,55.6,44.5,37.9,97,76,42,29.92,29.71,22,1,23,0.15
2013-7-4,73.9,58.7,46.6,46.0,40.6,34.5,77,53,28,29.80,29.66,27,2,34,0.00
2013-7-5,77.5,59.7,50.4,50.4,45.2,39.2,96,62,28,29.73,29.54,12,2,12,0.08
2013-7-6,75.7,58.5,51.6,54.1,50.1,45.1,93,75,41,29.77,29.60,13,2,13,0.27
2013-7-7,73.8,59.9,50.5,56.8,50.3,45.3,92,72,39,29.79,29.71,17,1,21,0.05
2013-7-8,81.0,61.3,54.5,55.4,49.9,44.4,83,68,30,29.85,29.73,22,1,22,0.02
2013-7-9,82.6,67.0,56.3,54.0,48.0,40.8,84,54,25,29.87,29.80,13,2,13,0.08
2013-7-10,75.6,58.8,52.7,56.7,49.2,45.9,96,72,39,29.88,29.79,15,1,18,0.38
2013-7-11,76.8,61.0,49.3,53.8,49.8,45.3,95,69,40,29.88,29.69,15,2,17,0.00
2013-7-12,73.2,62.4,54.3,51.3,48.7,46.2,78,62,41,29.73,29.62,12,2,14,0.00
2013-7-13,79.0,63.9,55.2,52.2,47.3,41.7,73,57,29,29.77,29.68,13,2,19,0.00
2013-7-14,72.7,57.6,50.7,55.9,51.3,47.7,94,80,44,29.83,29.67,12,3,16,0.29
2013-7-15,62.2,52.9,48.4,52.0,48.7,43.3,98,87,58,29.91,29.78,11,1,13,0.27
2013-7-16,62.8,50.8,41.7,49.5,44.4,40.3,96,80,54,30.06,29.89,11,1,14,0.00
2013-7-17,68.5,54.5,44.1,50.9,46.7,43.0,97,77,48,30.10,29.95,7,0,9,0.00
2013-7-18,72.9,57.9,46.2,53.1,48.1,44.2,97,73,41,30.02,29.78,7,1,9,0.00
2013-7-19,76.8,57.0,48.0,53.2,48.7,45.7,97,77,39,29.86,29.68,11,2,15,0.29
2013-7-20,74.7,59.9,48.2,55.4,50.3,44.1,97,72,44,29.86,29.68,14,1,15,0.49
2013-7-21,72.7,58.8,51.1,52.5,47.6,39.4,91,68,37,29.76,29.65,19,2,28,0.00
2013-7-22,80.6,64.6,51.1,50.7,41.5,29.3,76,47,19,29.77,29.64,7,1,9,0.00
2013-7-23,77.2,63.5,55.0,50.4,42.5,37.6,62,47,27,29.77,29.64,15,1,15,0.00
2013-7-24,79.5,63.7,53.1,50.5,45.9,35.8,84,55,22,29.78,29.65,10,1,14,0.00
2013-7-25,75.9,57.1,46.9,53.6,48.6,45.3,95,76,36,29.95,29.72,14,3,17,0.16
2013-7-26,71.2,53.6,47.1,56.1,49.9,46.4,98,89,54,30.05,29.87,8,1,12,0.50
2013-7-27,72.3,57.4,46.8,49.3,46.8,43.0,97,71,37,30.05,29.75,14,3,15,0.00
2013-7-28,68.2,54.5,47.7,53.4,49.5,46.2,96,84,56,29.78,29.62,15,3,19,0.06
2013-7-29,71.1,58.7,48.4,52.5,46.4,40.8,96,67,34,29.88,29.74,19,3,19,0.04
2013-7-30,75.2,62.9,49.6,46.9,40.6,32.2,80,48,22,29.94,29.85,14,2,16,0.00
2013-7-31,78.3,63.0,50.5,52.5,43.3,29.7,87,55,18,29.94,29.77,13,2,16,0.00